Station: EBLG - 15/12/2018 00:50Z (il y a 25 minutes)
EBLG 150050Z 18005KT 150V210 9999 BKN030 M00/M07 Q1025 NOSIG
Vent du 180º - 5 kt (vent de direction variable de 150º à 210º)
Visibilité > 10 km
Ciel 75% couvert à 3000 pieds
Température: -00ºC - Point de rosée: -07ºC - QNH: 1025 hPa
Pas de changement significatif prévu dans les 2 heures qui suivent l'observation